Time;durP1;ratioP1;P1;durP2;ratioP2;P2;SDS_P1;SDS_P2;PMS_P1;PMS_P2;Temp;Humidity;BMP_temperature;BMP_pressure;BME280_temperature;BME280_humidity;BME280_pressure;Samples;Min_cycle;Max_cycle;Signal;HPM_P1;HPM_P2
2022/04/14 00:01:53;;;;;;;8.45;5.45;;;;;;;21.82;36.86;101601.53;5006681;28;20050;-78
2022/04/14 00:04:20;;;;;;;8.75;5.57;;;;;;;21.81;37.40;101599.78;4997118;28;20131;-79
2022/04/14 00:06:47;;;;;;;8.25;5.68;;;;;;;21.80;37.55;101598.06;5007358;28;20417;-78
2022/04/14 00:09:14;;;;;;;8.90;5.72;;;;;;;21.78;37.30;101603.75;5004124;28;20046;-78
2022/04/14 00:11:40;;;;;;;9.05;5.90;;;;;;;21.76;37.73;101597.50;5003839;28;20057;-79
2022/04/14 00:14:07;;;;;;;9.00;6.15;;;;;;;21.73;37.27;101591.44;4998347;28;20129;-78
2022/04/14 00:16:34;;;;;;;9.00;6.30;;;;;;;21.73;37.48;101586.75;5003339;28;20552;-79
2022/04/14 00:19:01;;;;;;;8.48;6.10;;;;;;;21.71;37.54;101591.56;5004536;28;20054;-79
2022/04/14 00:21:27;;;;;;;8.60;5.65;;;;;;;21.69;37.38;101593.63;5004643;28;20068;-79
2022/04/14 00:23:54;;;;;;;9.18;5.72;;;;;;;21.68;37.54;101596.53;4997379;28;20120;-79
2022/04/14 00:26:21;;;;;;;7.97;5.53;;;;;;;21.65;37.91;101589.44;4997380;28;20140;-79
2022/04/14 00:28:47;;;;;;;7.88;5.40;;;;;;;21.64;37.71;101593.22;5004403;28;20108;-79
2022/04/14 00:31:14;;;;;;;7.97;5.35;;;;;;;21.63;37.84;101597.00;5005549;28;20046;-79
2022/04/14 00:33:41;;;;;;;8.63;5.85;;;;;;;21.61;37.86;101593.53;5004682;28;20088;-80
2022/04/14 00:36:07;;;;;;;8.68;5.68;;;;;;;21.59;37.90;101587.28;5007342;28;20469;-79
2022/04/14 00:38:34;;;;;;;9.55;6.28;;;;;;;21.57;37.98;101587.47;5003558;28;20112;-79
2022/04/14 00:41:01;;;;;;;8.70;6.63;;;;;;;21.57;37.86;101586.59;5005494;28;20056;-79
2022/04/14 00:43:29;;;;;;;8.35;5.95;;;;;;;21.55;37.68;101589.50;5006681;28;20077;-80
2022/04/14 00:45:57;;;;;;;7.22;5.57;;;;;;;21.53;38.12;101586.03;5002293;28;20137;-79
2022/04/14 00:48:24;;;;;;;9.07;5.80;;;;;;;21.51;38.28;101589.97;4996764;28;20047;-79
2022/04/14 00:50:51;;;;;;;9.05;6.32;;;;;;;21.50;38.05;101589.09;5008130;28;20060;-78
2022/04/14 00:53:18;;;;;;;8.20;5.93;;;;;;;21.49;37.77;101583.75;4999558;28;20498;-79
2022/04/14 00:55:44;;;;;;;7.78;5.45;;;;;;;21.48;38.46;101584.75;4995385;28;20124;-79
2022/04/14 00:58:12;;;;;;;9.38;6.57;;;;;;;21.46;38.41;101579.38;5003963;28;20088;-79
2022/04/14 01:00:38;;;;;;;9.18;6.13;;;;;;;21.45;38.35;101574.00;5004579;28;20053;-79
2022/04/14 01:03:05;;;;;;;10.25;6.50;;;;;;;21.44;38.24;101575.91;5008440;28;20053;-79
2022/04/14 01:05:33;;;;;;;8.68;5.78;;;;;;;21.43;38.26;101579.69;5011755;28;20054;-79
2022/04/14 01:08:00;;;;;;;8.40;5.68;;;;;;;21.40;38.44;101568.09;5008300;28;20054;-79
2022/04/14 01:10:27;;;;;;;8.20;5.82;;;;;;;21.38;38.56;101575.66;5008367;28;20069;-79
2022/04/14 01:12:54;;;;;;;8.55;5.40;;;;;;;21.37;38.46;101579.44;5014772;28;20501;-79
2022/04/14 01:15:21;;;;;;;9.40;6.15;;;;;;;21.36;38.34;101588.75;5009814;28;20130;-79
2022/04/14 01:17:47;;;;;;;8.57;6.10;;;;;;;21.34;38.41;101579.75;5003791;28;20120;-79
2022/04/14 01:20:14;;;;;;;8.02;5.90;;;;;;;21.32;38.49;101577.16;4999149;28;20065;-79
2022/04/14 01:22:54;;;;;;;10.93;6.85;;;;;;;21.34;39.29;101580.59;5005968;28;20057;-79
2022/04/14 01:25:20;;;;;;;8.77;6.05;;;;;;;21.27;38.93;101579.50;5003570;28;20501;-79
2022/04/14 01:27:47;;;;;;;8.55;5.78;;;;;;;21.28;38.85;101586.75;5007643;28;20046;-79
2022/04/14 01:30:13;;;;;;;8.25;5.80;;;;;;;21.26;38.67;101577.75;5002370;28;20088;-79
2022/04/14 01:32:40;;;;;;;10.23;6.65;;;;;;;21.25;38.81;101585.16;5010708;28;20073;-79
2022/04/14 01:35:07;;;;;;;10.30;6.22;;;;;;;21.25;38.63;101587.06;5010381;28;20088;-79
2022/04/14 01:37:34;;;;;;;8.63;6.13;;;;;;;21.23;39.03;101589.13;5005665;28;20611;-79
2022/04/14 01:40:01;;;;;;;9.65;6.30;;;;;;;21.22;39.09;101593.78;5008402;28;20136;-79
2022/04/14 01:42:27;;;;;;;9.40;6.55;;;;;;;21.21;38.96;101594.81;5008572;28;20074;-79
2022/04/14 01:44:55;;;;;;;10.43;7.82;;;;;;;21.20;39.23;101594.94;5007738;28;20073;-79
2022/04/14 01:47:22;;;;;;;10.90;7.30;;;;;;;21.20;38.81;101606.88;5007928;28;20042;-79
2022/04/14 01:49:48;;;;;;;10.65;7.03;;;;;;;21.18;39.31;101605.28;5009760;28;20077;-79
2022/04/14 01:52:15;;;;;;;11.32;8.10;;;;;;;21.16;39.17;101608.19;5005065;28;20121;-79
2022/04/14 01:54:42;;;;;;;12.85;7.75;;;;;;;21.15;39.11;101605.56;5009474;28;20417;-80
2022/04/14 01:57:09;;;;;;;10.68;7.65;;;;;;;21.13;39.09;101605.72;5002798;28;20057;-79
2022/04/14 01:59:35;;;;;;;10.35;7.75;;;;;;;21.10;39.51;101600.47;4997215;28;20057;-79
2022/04/14 02:02:03;;;;;;;12.82;8.63;;;;;;;21.08;39.70;101594.25;5006040;28;20062;-80
2022/04/14 02:04:29;;;;;;;13.07;8.50;;;;;;;21.08;39.70;101594.25;5001608;28;20060;-79
2022/04/14 02:06:56;;;;;;;10.43;7.72;;;;;;;21.08;39.48;101587.88;5006842;28;20081;-79
2022/04/14 02:09:23;;;;;;;11.25;7.43;;;;;;;21.07;39.77;101583.38;5006082;28;20078;-79
2022/04/14 02:11:50;;;;;;;13.52;8.77;;;;;;;21.07;39.53;101594.41;5003623;28;20108;-79
2022/04/14 02:14:16;;;;;;;13.88;9.45;;;;;;;21.07;39.43;101591.66;5007731;28;20085;-79
2022/04/14 02:16:43;;;;;;;13.63;9.07;;;;;;;21.06;39.33;101596.31;5003164;28;20104;-79
2022/04/14 02:19:09;;;;;;;13.63;9.00;;;;;;;21.04;39.49;101587.28;5006970;28;20065;-79
2022/04/14 02:21:36;;;;;;;13.25;8.52;;;;;;;21.03;39.89;101580.03;5008584;28;20050;-79
2022/04/14 02:24:03;;;;;;;12.10;8.15;;;;;;;21.02;39.79;101575.53;5005176;28;20053;-79
2022/04/14 02:26:29;;;;;;;13.35;8.32;;;;;;;21.01;39.62;101564.63;5000370;28;20134;-79
2022/04/14 02:28:56;;;;;;;12.77;7.78;;;;;;;21.01;40.01;101575.66;5002222;28;20116;-79
2022/04/14 02:31:22;;;;;;;13.50;8.07;;;;;;;20.99;39.72;101578.59;5007183;28;20053;-79
2022/04/14 02:33:49;;;;;;;12.80;7.90;;;;;;;21.00;40.07;101582.25;5007386;28;20050;-79
2022/04/14 02:36:16;;;;;;;12.32;8.05;;;;;;;20.99;39.88;101592.41;5007060;28;20088;-79
2022/04/14 02:38:45;;;;;;;13.38;8.18;;;;;;;20.98;40.25;101579.63;5007125;28;20489;-79
2022/04/14 02:41:11;;;;;;;11.32;7.55;;;;;;;20.97;40.00;101582.53;5010719;28;20100;-79
2022/04/14 02:43:38;;;;;;;12.85;8.18;;;;;;;20.96;40.03;101584.41;5006160;28;20119;-79
2022/04/14 02:46:05;;;;;;;12.30;7.30;;;;;;;20.96;40.17;101583.56;5005814;28;20085;-79
2022/04/14 02:48:32;;;;;;;12.40;8.60;;;;;;;20.96;40.57;101572.50;4999645;28;20413;-79
2022/04/14 02:50:58;;;;;;;13.27;8.80;;;;;;;20.95;40.30;101584.56;5009314;28;20053;-79
2022/04/14 02:53:26;;;;;;;14.30;8.50;;;;;;;20.95;40.70;101590.97;5008746;28;20061;-78
2022/04/14 02:55:53;;;;;;;12.70;8.63;;;;;;;20.92;40.63;101591.25;5006319;28;20133;-79
2022/04/14 02:58:19;;;;;;;14.05;9.02;;;;;;;20.91;40.92;101594.19;5007933;28;20081;-79
2022/04/14 03:00:46;;;;;;;13.07;8.93;;;;;;;20.91;40.39;101591.44;5008017;28;20057;-79
2022/04/14 03:03:12;;;;;;;13.65;10.02;;;;;;;20.89;40.82;101588.81;5007615;28;20722;-79
2022/04/14 03:05:39;;;;;;;12.52;9.30;;;;;;;20.88;40.47;101587.06;5007992;28;20124;-79
2022/04/14 03:08:06;;;;;;;15.57;10.27;;;;;;;20.86;40.64;101587.22;5011257;28;20077;-79
2022/04/14 03:10:32;;;;;;;13.60;9.68;;;;;;;20.85;40.63;101579.09;5006893;28;20048;-79
2022/04/14 03:12:59;;;;;;;15.02;10.60;;;;;;;20.84;40.91;101580.97;5002363;28;20049;-79
2022/04/14 03:15:26;;;;;;;14.75;9.77;;;;;;;20.84;40.57;101569.06;5000925;28;20062;-79
2022/04/14 03:17:53;;;;;;;15.52;10.25;;;;;;;20.83;40.91;101557.19;5009263;28;20069;-79
2022/04/14 03:20:51;;;;;;;16.27;10.88;;;;;;;20.83;41.48;101554.41;5001836;28;20064;-79
2022/04/14 03:23:18;;;;;;;15.27;10.07;;;;;;;20.78;41.33;101558.63;5006054;28;20042;-79
2022/04/14 03:25:45;;;;;;;16.70;10.73;;;;;;;20.78;41.06;101566.91;5001680;28;20121;-79
2022/04/14 03:28:12;;;;;;;14.57;10.65;;;;;;;20.77;41.07;101551.38;5000290;28;20048;-79
2022/04/14 03:30:38;;;;;;;16.73;11.43;;;;;;;20.74;41.34;101546.16;4998549;28;20075;-79
2022/04/14 03:33:05;;;;;;;16.33;11.70;;;;;;;20.72;41.39;101540.78;5007966;28;20132;-79
2022/04/14 03:35:31;;;;;;;15.55;10.80;;;;;;;20.72;41.70;101557.34;5004368;28;20069;-79
2022/04/14 03:37:58;;;;;;;15.00;9.90;;;;;;;20.71;41.34;101574.06;5006950;28;20043;-79
2022/04/14 03:40:25;;;;;;;14.77;10.13;;;;;;;20.70;41.64;101567.66;4996116;28;20088;-79
2022/04/14 03:42:51;;;;;;;14.38;9.93;;;;;;;20.69;41.33;101570.56;5004417;28;20653;-79
2022/04/14 03:45:18;;;;;;;14.98;9.57;;;;;;;20.68;41.56;101566.94;4991233;28;20049;-79
2022/04/14 03:47:44;;;;;;;13.68;9.88;;;;;;;20.68;42.14;101566.06;5004837;28;20132;-79
2022/04/14 03:50:11;;;;;;;14.23;9.57;;;;;;;20.67;41.95;101570.72;5000616;28;20092;-79
2022/04/14 03:52:38;;;;;;;14.60;9.98;;;;;;;20.67;41.81;101573.47;5009946;28;20104;-79
2022/04/14 03:55:06;;;;;;;15.63;10.30;;;;;;;20.69;42.03;101573.34;5007992;28;20071;-79
2022/04/14 03:57:32;;;;;;;14.60;9.90;;;;;;;20.66;41.77;101582.81;5006477;28;20054;-79
2022/04/14 03:59:59;;;;;;;13.18;9.10;;;;;;;20.66;41.77;101576.41;5008731;28;20077;-79
2022/04/14 04:02:25;;;;;;;15.15;10.02;;;;;;;20.64;41.93;101587.59;5005187;28;20475;-79
2022/04/14 04:04:58;;;;;;;16.38;10.65;;;;;;;20.61;42.29;101585.13;5007444;28;20050;-79
2022/04/14 04:07:25;;;;;;;16.77;10.48;;;;;;;20.64;42.28;101582.06;5002063;28;20137;-79
2022/04/14 04:09:54;;;;;;;16.60;10.73;;;;;;;20.62;41.85;101584.09;5008105;28;20503;-79
2022/04/14 04:12:21;;;;;;;18.10;11.48;;;;;;;20.61;41.77;101579.59;4992570;28;20098;-79
2022/04/14 04:14:49;;;;;;;17.42;12.30;;;;;;;20.61;41.91;101587.00;5004895;28;20132;-79
2022/04/14 04:17:16;;;;;;;16.42;10.70;;;;;;;20.60;42.55;101608.22;5008324;28;20049;-79
2022/04/14 04:19:43;;;;;;;18.88;12.20;;;;;;;20.57;42.15;101622.31;5002457;28;20053;-79
2022/04/14 04:22:10;;;;;;;19.42;12.45;;;;;;;20.56;42.63;101623.34;5000271;28;20073;-79
2022/04/14 04:24:37;;;;;;;17.83;12.13;;;;;;;20.54;42.23;101619.84;5004206;28;20080;-79
2022/04/14 04:27:05;;;;;;;17.63;12.93;;;;;;;20.54;42.46;101622.59;5002878;28;20046;-79
2022/04/14 04:29:32;;;;;;;18.88;12.52;;;;;;;20.52;42.56;101621.88;5008732;28;20058;-78
2022/04/14 04:31:59;;;;;;;18.10;12.07;;;;;;;20.52;41.89;101621.88;5007507;28;20566;-80
2022/04/14 04:34:25;;;;;;;20.40;13.45;;;;;;;20.49;42.34;101628.59;5003898;28;20421;-79
2022/04/14 04:36:52;;;;;;;20.63;12.95;;;;;;;20.48;42.85;101626.84;5006616;28;20165;-79
2022/04/14 04:39:18;;;;;;;18.85;13.30;;;;;;;20.48;42.30;101625.97;5009915;28;20042;-79
2022/04/14 04:41:45;;;;;;;19.80;13.48;;;;;;;20.47;42.36;101627.84;5012369;28;20171;-79
2022/04/14 04:44:12;;;;;;;20.70;13.32;;;;;;;20.46;42.61;101628.88;5008162;28;20131;-79
2022/04/14 04:46:38;;;;;;;19.38;13.00;;;;;;;20.45;42.46;101632.66;5004430;28;20046;-79
2022/04/14 04:49:05;;;;;;;19.08;13.45;;;;;;;20.45;42.44;101629.00;5000682;28;20324;-79
2022/04/14 04:51:32;;;;;;;20.70;13.18;;;;;;;20.44;42.71;101632.78;5012678;28;20096;-79
2022/04/14 04:53:58;;;;;;;19.30;13.20;;;;;;;20.44;42.73;101632.78;5008761;28;20456;-79
2022/04/14 04:56:25;;;;;;;22.02;13.85;;;;;;;20.42;42.93;101632.94;5010459;28;20108;-79
2022/04/14 04:58:52;;;;;;;19.77;12.85;;;;;;;20.40;42.95;101629.47;5005128;28;20081;-79
2022/04/14 05:01:18;;;;;;;18.98;12.65;;;;;;;20.40;43.23;101626.72;5009995;28;20458;-78
2022/04/14 05:03:45;;;;;;;19.95;13.15;;;;;;;20.38;42.69;101634.25;5006184;28;20402;-78
2022/04/14 05:06:12;;;;;;;19.55;13.05;;;;;;;20.37;42.97;101639.91;5006541;28;20124;-79
2022/04/14 05:08:38;;;;;;;19.25;13.00;;;;;;;20.36;43.00;101639.03;5009168;28;20076;-79
2022/04/14 05:11:07;;;;;;;21.17;13.90;;;;;;;20.36;43.14;101630.75;5007471;28;20064;-77
2022/04/14 05:13:35;;;;;;;21.10;13.48;;;;;;;20.34;43.32;101646.56;5011530;28;20620;-77
2022/04/14 05:16:02;;;;;;;19.10;12.90;;;;;;;20.33;43.04;101647.59;5010559;28;20061;-77
2022/04/14 05:18:29;;;;;;;21.77;13.93;;;;;;;20.32;43.19;101654.13;5007913;28;20124;-77
2022/04/14 05:20:56;;;;;;;20.20;12.70;;;;;;;20.32;43.18;101656.00;5004129;28;20516;-77
2022/04/14 05:23:22;;;;;;;20.77;12.98;;;;;;;20.30;43.00;101653.38;5004996;28;20527;-79
2022/04/14 05:25:49;;;;;;;18.33;12.85;;;;;;;20.29;42.93;101648.88;5007658;28;20137;-77
2022/04/14 05:28:15;;;;;;;18.23;12.65;;;;;;;20.28;43.04;101647.13;5006008;28;20042;-78
2022/04/14 05:30:42;;;;;;;18.15;11.73;;;;;;;20.28;42.92;101646.28;5010472;28;20073;-77
2022/04/14 05:33:10;;;;;;;19.90;13.02;;;;;;;20.26;43.33;101653.84;5003088;28;20413;-78
2022/04/14 05:35:42;;;;;;;19.23;12.90;;;;;;;20.29;43.51;101650.78;5010231;28;20144;-80
2022/04/14 05:38:09;;;;;;;17.58;12.55;;;;;;;20.24;43.24;101661.38;5010354;28;20057;-79
2022/04/14 05:40:41;;;;;;;21.45;13.52;;;;;;;20.24;43.23;101664.13;5005368;28;20120;-79
2022/04/14 05:43:22;;;;;;;19.77;12.70;;;;;;;20.25;44.04;101668.66;5011175;28;20073;-79
2022/04/14 05:45:49;;;;;;;17.42;13.00;;;;;;;20.22;43.29;101667.03;5009136;28;20292;-79
2022/04/14 05:48:17;;;;;;;18.90;12.88;;;;;;;20.24;43.04;101675.16;5009696;28;20042;-78
2022/04/14 05:50:45;;;;;;;17.25;12.75;;;;;;;20.23;43.38;101671.53;4996596;28;20050;-78
2022/04/14 05:53:12;;;;;;;19.75;12.90;;;;;;;20.23;43.55;101676.19;5003306;28;20054;-80
2022/04/14 05:55:40;;;;;;;18.42;12.95;;;;;;;20.23;43.76;101676.19;5004666;28;20050;-78
2022/04/14 05:58:08;;;;;;;19.13;12.43;;;;;;;20.22;43.42;101674.44;5010672;28;20057;-79
2022/04/14 06:00:35;;;;;;;18.65;12.88;;;;;;;20.22;43.32;101679.94;5003960;28;20133;-78
2022/04/14 06:03:02;;;;;;;20.30;13.00;;;;;;;20.21;44.03;101681.84;5004196;28;20112;-79
2022/04/14 06:05:31;;;;;;;18.40;12.52;;;;;;;20.22;43.87;101686.34;5004681;28;20128;-77
2022/04/14 06:07:58;;;;;;;20.63;12.55;;;;;;;20.21;43.84;101680.97;5009745;28;20483;-77
2022/04/14 06:10:26;;;;;;;19.30;12.68;;;;;;;20.22;43.50;101677.19;5006860;28;20107;-77
2022/04/14 06:12:55;;;;;;;19.92;12.75;;;;;;;20.21;43.59;101679.06;5008616;28;20050;-78
2022/04/14 06:15:22;;;;;;;18.08;12.40;;;;;;;20.22;43.51;101674.44;5006267;28;20160;-77
2022/04/14 06:17:50;;;;;;;18.85;12.05;;;;;;;20.22;43.79;101678.06;5009634;28;20082;-77
2022/04/14 06:20:17;;;;;;;20.88;13.75;;;;;;;20.23;43.98;101678.94;4998288;28;20084;-77
2022/04/14 06:22:44;;;;;;;19.63;12.90;;;;;;;20.25;44.01;101682.44;5009947;28;20054;-77
2022/04/14 06:25:17;;;;;;;19.33;13.25;;;;;;;20.25;44.10;101680.53;5001488;28;20058;-78
2022/04/14 06:27:44;;;;;;;19.40;12.05;;;;;;;20.25;44.17;101679.69;5005529;28;20501;-77
2022/04/14 06:30:13;;;;;;;19.75;13.18;;;;;;;20.27;43.73;101680.38;5006687;28;20126;-77
2022/04/14 06:32:40;;;;;;;19.40;12.50;;;;;;;20.27;44.24;101677.63;5011039;28;20041;-78
2022/04/14 06:35:12;;;;;;;19.15;12.95;;;;;;;20.29;44.14;101690.25;5002581;28;20148;-77
2022/04/14 06:37:39;;;;;;;19.50;12.50;;;;;;;20.29;44.25;101686.63;5005432;28;20465;-76
2022/04/14 06:40:06;;;;;;;20.83;13.38;;;;;;;20.30;43.90;101694.75;5001539;28;20532;-78
2022/04/14 06:42:53;;;;;;;20.02;14.07;;;;;;;20.30;43.95;101692.00;5009412;28;20054;-78
2022/04/14 06:45:19;;;;;;;19.67;13.52;;;;;;;20.32;44.29;101687.22;5006666;28;20472;-79
2022/04/14 06:47:46;;;;;;;19.48;13.75;;;;;;;20.33;44.00;101694.47;4999293;28;20049;-78
2022/04/14 06:50:13;;;;;;;20.30;13.02;;;;;;;20.34;44.18;101698.97;5008182;28;20053;-78
2022/04/14 06:52:40;;;;;;;23.00;14.23;;;;;;;20.36;44.69;101698.84;5008777;28;20053;-80
2022/04/14 06:55:08;;;;;;;23.63;14.80;;;;;;;20.39;44.38;101701.31;5003704;28;20058;-81
2022/04/14 06:57:35;;;;;;;21.10;13.40;;;;;;;20.39;44.52;101696.69;5007884;28;20049;-82
2022/04/14 07:00:03;;;;;;;20.83;13.27;;;;;;;20.42;44.29;101696.38;5005359;28;20104;-80
2022/04/14 07:02:31;;;;;;;24.58;14.18;;;;;;;20.44;44.47;101697.09;5008387;28;20046;-80
2022/04/14 07:05:01;;;;;;;22.90;13.50;;;;;;;20.48;44.76;101708.72;4994928;28;20062;-79
2022/04/14 07:07:33;;;;;;;20.15;13.40;;;;;;;20.50;44.62;101701.19;5008258;28;20454;-80
2022/04/14 07:09:59;;;;;;;20.23;13.50;;;;;;;20.54;44.75;101699.84;5004310;28;20140;-79
2022/04/14 07:12:26;;;;;;;19.77;13.20;;;;;;;20.57;44.56;101705.09;5009018;28;20093;-79
2022/04/14 07:14:53;;;;;;;20.38;13.38;;;;;;;20.60;44.76;101702.03;5008745;28;20501;-80
2022/04/14 07:17:20;;;;;;;21.13;13.80;;;;;;;20.64;44.71;101714.53;5006712;28;20128;-81
2022/04/14 07:19:47;;;;;;;18.80;12.93;;;;;;;20.67;44.14;101719.72;5003539;28;20540;-81
2022/04/14 07:22:18;;;;;;;22.70;13.57;;;;;;;20.73;44.93;101719.16;5009815;28;20129;-80
2022/04/14 07:24:48;;;;;;;20.35;13.45;;;;;;;20.78;44.44;101725.09;5002209;28;20085;-81
2022/04/14 07:27:18;;;;;;;20.85;13.25;;;;;;;20.79;44.10;101721.31;5008595;28;20092;-81
2022/04/14 07:29:46;;;;;;;19.35;12.30;;;;;;;20.81;44.17;101718.44;5006954;28;20100;-82
2022/04/14 07:32:13;;;;;;;19.35;12.40;;;;;;;20.85;44.18;101720.72;5006420;28;20141;-84
2022/04/14 07:34:40;;;;;;;16.13;11.13;;;;;;;20.89;43.97;101713.03;5008114;28;20049;-81
2022/04/14 07:37:07;;;;;;;16.55;11.50;;;;;;;20.92;44.02;101725.69;5008598;28;20116;-79
2022/04/14 07:39:34;;;;;;;15.90;10.75;;;;;;;20.97;44.00;101731.63;5008491;28;20464;-79
2022/04/14 07:42:00;;;;;;;15.85;11.00;;;;;;;21.01;43.86;101731.16;5007992;28;20049;-79
2022/04/14 07:44:27;;;;;;;15.93;11.75;;;;;;;21.08;44.39;101732.31;5004021;28;20077;-79
2022/04/14 07:46:54;;;;;;;17.20;10.85;;;;;;;21.16;44.02;101737.97;4996989;28;20046;-80
2022/04/14 07:49:20;;;;;;;18.30;11.85;;;;;;;21.26;44.02;101732.44;4998718;28;20042;-79
2022/04/14 07:51:47;;;;;;;19.08;12.20;;;;;;;21.37;43.69;101729.50;5009556;28;20081;-79
2022/04/14 07:54:14;;;;;;;18.40;12.13;;;;;;;21.47;43.74;101741.38;5003372;28;20104;-79
2022/04/14 07:56:40;;;;;;;17.13;12.18;;;;;;;21.58;43.74;101735.66;5007816;28;20434;-80
2022/04/14 07:59:07;;;;;;;17.27;11.77;;;;;;;21.69;43.29;101736.47;5001127;28;20089;-79
2022/04/14 08:01:34;;;;;;;16.58;11.73;;;;;;;21.79;43.40;101735.41;5004409;28;20116;-80
2022/04/14 08:04:00;;;;;;;18.00;11.05;;;;;;;21.89;43.33;101730.69;5011806;28;20096;-80
2022/04/14 08:06:29;;;;;;;15.50;11.32;;;;;;;22.00;42.52;101735.16;4999105;28;20053;-79
2022/04/14 08:08:55;;;;;;;17.05;11.05;;;;;;;22.13;43.02;101737.56;5001676;28;20054;-80
2022/04/14 08:11:22;;;;;;;14.50;10.30;;;;;;;22.25;42.79;101733.53;5007125;28;20054;-79
2022/04/14 08:13:49;;;;;;;15.05;10.13;;;;;;;22.35;42.31;101728.81;5011532;28;20131;-79
2022/04/14 08:16:18;;;;;;;13.68;9.48;;;;;;;22.52;42.15;101729.84;5008491;28;20038;-81
2022/04/14 08:18:45;;;;;;;14.35;9.40;;;;;;;22.60;41.92;101733.53;5012178;28;20130;-80
2022/04/14 08:21:13;;;;;;;14.93;9.88;;;;;;;22.75;42.03;101733.88;5010111;28;20050;-82
2022/04/14 08:23:40;;;;;;;14.02;9.55;;;;;;;22.89;41.73;101732.44;5005906;28;20132;-80
2022/04/14 08:26:08;;;;;;;14.95;9.55;;;;;;;23.03;41.42;101726.31;5014488;28;20085;-80
2022/04/14 08:28:44;;;;;;;13.93;8.38;;;;;;;23.16;41.03;101732.28;5014250;28;20456;-80
2022/04/14 08:31:11;;;;;;;13.15;8.68;;;;;;;23.31;41.08;101738.06;5016173;28;20100;-80
2022/04/14 08:33:39;;;;;;;12.60;8.18;;;;;;;23.46;40.23;101747.53;5014964;28;20053;-80
2022/04/14 08:36:11;;;;;;;12.23;7.80;;;;;;;23.59;40.21;101739.66;5014190;28;20145;-81
2022/04/14 08:38:42;;;;;;;12.73;8.30;;;;;;;23.74;39.89;101738.00;5011151;28;20117;-81
2022/04/14 08:41:08;;;;;;;12.10;8.32;;;;;;;23.85;40.15;101740.50;5014954;28;20060;-81
2022/04/14 08:43:51;;;;;;;12.40;8.80;;;;;;;24.01;38.93;101736.03;5013908;28;20046;-80
2022/04/14 08:46:20;;;;;;;13.45;8.70;;;;;;;24.10;39.04;101741.44;5011949;28;20604;-80
2022/04/14 08:48:50;;;;;;;12.57;8.40;;;;;;;24.24;39.01;101732.47;5017826;28;20054;-79
2022/04/14 08:51:20;;;;;;;11.88;8.30;;;;;;;24.37;37.93;101743.09;5015309;28;20057;-80
2022/04/14 08:53:48;;;;;;;13.98;9.50;;;;;;;24.46;38.16;101738.44;5013901;28;20076;-81
2022/04/14 08:56:21;;;;;;;12.73;8.30;;;;;;;24.55;37.70;101738.25;5026436;28;20061;-80
2022/04/14 08:58:48;;;;;;;13.90;9.13;;;;;;;24.65;37.62;101738.94;5014071;28;20433;-80
2022/04/14 09:01:15;;;;;;;14.65;9.80;;;;;;;24.75;37.62;101743.47;5014724;28;20045;-79
2022/04/14 09:03:58;;;;;;;14.20;9.98;;;;;;;24.86;36.35;101740.34;5007705;28;20053;-79
2022/04/14 09:06:31;;;;;;;13.82;9.77;;;;;;;24.93;36.98;101741.44;5015977;28;20497;-78
2022/04/14 09:08:59;;;;;;;13.48;9.20;;;;;;;24.97;37.46;101743.66;5014349;28;20096;-78
2022/04/14 09:11:27;;;;;;;14.35;10.23;;;;;;;25.09;37.09;101737.75;5016993;28;20054;-79
2022/04/14 09:13:54;;;;;;;15.88;10.88;;;;;;;25.17;36.66;101741.41;5008069;28;20050;-79
2022/04/14 09:16:22;;;;;;;14.63;11.05;;;;;;;25.24;36.37;101741.56;5011055;28;20054;-78
2022/04/14 09:18:49;;;;;;;15.13;10.68;;;;;;;25.29;36.38;101728.84;5008618;28;20046;-78
2022/04/14 09:21:16;;;;;;;15.23;10.35;;;;;;;25.35;36.18;101732.84;5009581;28;20630;-79
2022/04/14 09:23:50;;;;;;;15.05;10.10;;;;;;;25.45;35.59;101732.66;5009242;28;20058;-78
2022/04/14 09:26:23;;;;;;;15.18;10.93;;;;;;;25.48;36.15;101735.94;5013078;28;20053;-78
2022/04/14 09:29:03;;;;;;;15.05;10.65;;;;;;;25.59;35.54;101726.38;5024368;28;20137;-78
2022/04/14 09:31:30;;;;;;;13.98;10.27;;;;;;;25.63;35.45;101727.75;5010701;28;20053;-78
2022/04/14 09:33:57;;;;;;;14.82;9.90;;;;;;;25.68;35.23;101728.97;5012870;28;20057;-78
2022/04/14 09:36:23;;;;;;;13.00;9.98;;;;;;;25.73;34.71;101728.41;5013714;28;20041;-79
2022/04/14 09:39:02;;;;;;;13.43;9.48;;;;;;;25.84;34.10;101721.59;5013070;28;20046;-78
2022/04/14 09:41:32;;;;;;;12.93;9.55;;;;;;;25.90;34.57;101716.16;5013187;28;20062;-78
2022/04/14 09:44:01;;;;;;;15.07;10.02;;;;;;;25.98;34.69;101724.47;5012860;28;20081;-79
2022/04/14 09:46:28;;;;;;;11.88;9.27;;;;;;;26.04;35.04;101720.06;5011324;28;20046;-78
2022/04/14 09:49:07;;;;;;;13.02;9.63;;;;;;;26.15;34.32;101720.53;5010349;28;20054;-78
2022/04/14 09:51:40;;;;;;;13.93;10.55;;;;;;;26.23;34.12;101714.06;5013365;28;20053;-79
2022/04/14 09:54:15;;;;;;;15.35;10.93;;;;;;;26.33;33.86;101717.50;5006148;28;20610;-78
2022/04/14 09:56:44;;;;;;;14.65;10.57;;;;;;;26.41;33.98;101708.22;5012725;28;20417;-79
2022/04/14 09:59:13;;;;;;;15.43;11.15;;;;;;;26.47;33.76;101704.69;5015219;28;20486;-79
2022/04/14 10:01:40;;;;;;;17.52;11.32;;;;;;;26.53;33.42;101710.38;5015797;28;20045;-80
2022/04/14 10:04:10;;;;;;;16.15;10.93;;;;;;;26.60;33.54;101707.75;5014957;28;20045;-79
2022/04/14 10:06:36;;;;;;;15.68;10.73;;;;;;;26.67;33.42;101699.50;5010403;28;20468;-78
2022/04/14 10:09:03;;;;;;;16.27;11.48;;;;;;;26.73;33.14;101695.94;5012246;28;20148;-74
2022/04/14 10:11:34;;;;;;;15.32;10.80;;;;;;;26.79;32.83;101693.28;5009898;28;20058;-74
2022/04/14 10:14:15;;;;;;;15.13;9.63;;;;;;;26.85;31.93;101695.28;5005777;28;20413;-74
2022/04/14 10:16:41;;;;;;;13.68;9.85;;;;;;;26.86;32.27;101687.81;5009134;28;20057;-74
2022/04/14 10:19:11;;;;;;;13.88;10.60;;;;;;;26.91;31.94;101687.28;5007376;28;20081;-73
2022/04/14 10:21:38;;;;;;;15.55;10.15;;;;;;;26.94;31.72;101684.97;5009993;28;20046;-76
2022/04/14 10:24:06;;;;;;;14.38;9.98;;;;;;;26.97;31.80;101680.94;5007463;28;20069;-77
2022/04/14 10:26:36;;;;;;;13.43;9.35;;;;;;;27.02;31.46;101682.09;5009452;28;20050;-75
2022/04/14 10:29:04;;;;;;;14.13;9.70;;;;;;;27.02;31.90;101679.31;5011295;28;20096;-77
2022/04/14 10:31:32;;;;;;;13.02;9.65;;;;;;;27.05;31.74;101683.66;5009055;28;20082;-77
2022/04/14 10:34:04;;;;;;;14.48;10.18;;;;;;;27.09;31.82;101682.22;5002116;28;20059;-77
2022/04/14 10:36:35;;;;;;;15.60;11.37;;;;;;;27.14;31.88;101683.38;5010907;28;20045;-77
2022/04/14 10:39:02;;;;;;;14.70;10.43;;;;;;;27.19;31.70;101686.44;5011439;28;20347;-78
2022/04/14 10:41:33;;;;;;;13.85;10.13;;;;;;;27.28;31.47;101688.09;5008661;28;20049;-76
2022/04/14 10:44:01;;;;;;;13.37;10.17;;;;;;;27.32;31.51;101688.59;5008819;28;20112;-76
2022/04/14 10:46:33;;;;;;;11.80;8.18;;;;;;;27.41;31.06;101678.19;5006080;28;20050;-78
2022/04/14 10:49:14;;;;;;;13.38;9.27;;;;;;;27.45;30.64;101666.44;5000968;28;20080;-77
2022/04/14 10:51:43;;;;;;;13.85;10.23;;;;;;;27.50;30.84;101663.97;5009180;28;20087;-76
2022/04/14 10:54:11;;;;;;;14.65;10.35;;;;;;;27.59;31.02;101671.19;5006320;28;20053;-76
2022/04/14 10:56:38;;;;;;;13.00;10.30;;;;;;;27.63;30.60;101666.94;5004610;28;20069;-76
2022/04/14 10:59:12;;;;;;;14.10;9.70;;;;;;;27.70;30.76;101660.59;5008844;28;20053;-76
2022/04/14 11:01:50;;;;;;;13.13;9.77;;;;;;;27.76;30.25;101663.47;4998758;28;20058;-77
2022/04/14 11:04:26;;;;;;;13.75;9.55;;;;;;;27.81;29.79;101658.16;4991354;28;20049;-76
2022/04/14 11:06:58;;;;;;;13.35;9.55;;;;;;;27.85;29.88;101653.03;5012340;28;20081;-76
2022/04/14 11:09:49;;;;;;;13.30;9.50;;;;;;;27.87;29.55;101650.94;5010750;28;20073;-76
2022/04/14 11:12:24;;;;;;;13.57;9.63;;;;;;;27.86;29.66;101647.28;5003458;28;20042;-77
2022/04/14 11:14:52;;;;;;;13.15;9.18;;;;;;;27.90;29.58;101648.63;5005144;28;20054;-76
2022/04/14 11:17:30;;;;;;;12.15;8.82;;;;;;;27.93;29.32;101656.59;5006058;28;20049;-76
2022/04/14 11:20:23;;;;;;;10.45;8.25;;;;;;;27.89;29.33;101657.19;5008139;28;20078;-76